sensor_id;sensor_type;location;lat;lon;timestamp;temperature;humidity
1686;DHT22;840;47.980;7.830;2023-04-24T00:01:26;13.20;99.90
1686;DHT22;840;47.980;7.830;2023-04-24T00:03:54;13.30;99.90
1686;DHT22;840;47.980;7.830;2023-04-24T00:06:24;13.20;99.90
1686;DHT22;840;47.980;7.830;2023-04-24T00:08:58;13.20;99.90
1686;DHT22;840;47.980;7.830;2023-04-24T00:11:27;13.20;99.90
1686;DHT22;840;47.980;7.830;2023-04-24T00:13:54;13.20;99.90
1686;DHT22;840;47.980;7.830;2023-04-24T00:16:21;13.20;99.90
1686;DHT22;840;47.980;7.830;2023-04-24T00:18:50;13.10;99.90
1686;DHT22;840;47.980;7.830;2023-04-24T00:21:21;13.10;99.90
1686;DHT22;840;47.980;7.830;2023-04-24T00:23:51;13.10;99.90
1686;DHT22;840;47.980;7.830;2023-04-24T00:26:18;13.10;99.90
1686;DHT22;840;47.980;7.830;2023-04-24T00:28:47;13.10;99.90
1686;DHT22;840;47.980;7.830;2023-04-24T00:31:13;13.10;99.90
1686;DHT22;840;47.980;7.830;2023-04-24T00:33:41;13.10;99.90
1686;DHT22;840;47.980;7.830;2023-04-24T00:36:07;13.10;99.90
1686;DHT22;840;47.980;7.830;2023-04-24T00:38:35;13.10;99.90
1686;DHT22;840;47.980;7.830;2023-04-24T00:41:01;13.10;99.90
1686;DHT22;840;47.980;7.830;2023-04-24T00:43:28;13.10;99.90
1686;DHT22;840;47.980;7.830;2023-04-24T00:45:57;13.10;99.90
1686;DHT22;840;47.980;7.830;2023-04-24T00:48:25;13.10;99.90
1686;DHT22;840;47.980;7.830;2023-04-24T00:50:52;13.10;99.90
1686;DHT22;840;47.980;7.830;2023-04-24T00:53:19;13.10;99.90
1686;DHT22;840;47.980;7.830;2023-04-24T00:55:46;13.10;99.90
1686;DHT22;840;47.980;7.830;2023-04-24T00:58:13;13.10;99.90
1686;DHT22;840;47.980;7.830;2023-04-24T01:00:40;13.20;99.90
1686;DHT22;840;47.980;7.830;2023-04-24T01:03:09;13.20;99.90
1686;DHT22;840;47.980;7.830;2023-04-24T01:05:38;13.10;99.90
1686;DHT22;840;47.980;7.830;2023-04-24T01:08:06;13.10;99.90
1686;DHT22;840;47.980;7.830;2023-04-24T01:10:33;13.10;99.90
1686;DHT22;840;47.980;7.830;2023-04-24T01:13:01;13.10;99.90
1686;DHT22;840;47.980;7.830;2023-04-24T01:15:28;13.10;99.90
1686;DHT22;840;47.980;7.830;2023-04-24T01:17:54;13.00;99.90
1686;DHT22;840;47.980;7.830;2023-04-24T01:20:24;13.00;99.90
1686;DHT22;840;47.980;7.830;2023-04-24T01:22:54;12.90;99.90
1686;DHT22;840;47.980;7.830;2023-04-24T01:25:22;12.90;99.90
1686;DHT22;840;47.980;7.830;2023-04-24T01:27:49;13.00;99.90
1686;DHT22;840;47.980;7.830;2023-04-24T01:30:17;13.00;99.90
1686;DHT22;840;47.980;7.830;2023-04-24T01:32:44;13.00;99.90
1686;DHT22;840;47.980;7.830;2023-04-24T01:35:11;13.00;99.90
1686;DHT22;840;47.980;7.830;2023-04-24T01:37:38;13.00;99.90
1686;DHT22;840;47.980;7.830;2023-04-24T01:40:08;12.90;99.90
1686;DHT22;840;47.980;7.830;2023-04-24T01:42:36;12.90;99.90
1686;DHT22;840;47.980;7.830;2023-04-24T01:45:04;12.90;99.90
1686;DHT22;840;47.980;7.830;2023-04-24T01:47:33;12.90;99.90
1686;DHT22;840;47.980;7.830;2023-04-24T01:50:00;12.80;99.90
1686;DHT22;840;47.980;7.830;2023-04-24T01:52:27;12.80;99.90
1686;DHT22;840;47.980;7.830;2023-04-24T01:54:56;12.80;99.90
1686;DHT22;840;47.980;7.830;2023-04-24T01:57:27;12.80;99.90
1686;DHT22;840;47.980;7.830;2023-04-24T01:59:55;12.70;99.90
1686;DHT22;840;47.980;7.830;2023-04-24T02:02:22;12.70;99.90
1686;DHT22;840;47.980;7.830;2023-04-24T02:04:49;12.70;99.90
1686;DHT22;840;47.980;7.830;2023-04-24T02:07:16;12.70;99.90
1686;DHT22;840;47.980;7.830;2023-04-24T02:09:43;12.60;99.90
1686;DHT22;840;47.980;7.830;2023-04-24T02:12:09;12.70;99.90
1686;DHT22;840;47.980;7.830;2023-04-24T02:14:38;12.70;99.90
1686;DHT22;840;47.980;7.830;2023-04-24T02:17:06;12.70;99.90
1686;DHT22;840;47.980;7.830;2023-04-24T02:19:33;12.70;99.90
1686;DHT22;840;47.980;7.830;2023-04-24T02:22:00;12.70;99.90
1686;DHT22;840;47.980;7.830;2023-04-24T02:24:27;12.70;99.90
1686;DHT22;840;47.980;7.830;2023-04-24T02:26:54;12.70;99.90
1686;DHT22;840;47.980;7.830;2023-04-24T02:29:21;12.70;99.90
1686;DHT22;840;47.980;7.830;2023-04-24T02:31:50;12.60;99.90
1686;DHT22;840;47.980;7.830;2023-04-24T02:34:16;12.60;99.90
1686;DHT22;840;47.980;7.830;2023-04-24T02:36:44;12.60;99.90
1686;DHT22;840;47.980;7.830;2023-04-24T02:39:10;12.50;99.90
1686;DHT22;840;47.980;7.830;2023-04-24T02:41:38;12.50;99.90
1686;DHT22;840;47.980;7.830;2023-04-24T02:44:05;12.50;99.90
1686;DHT22;840;47.980;7.830;2023-04-24T02:46:32;12.50;99.90
1686;DHT22;840;47.980;7.830;2023-04-24T02:49:00;12.50;99.90
1686;DHT22;840;47.980;7.830;2023-04-24T02:51:26;12.50;99.90
1686;DHT22;840;47.980;7.830;2023-04-24T02:53:53;12.50;99.90
1686;DHT22;840;47.980;7.830;2023-04-24T02:56:20;12.60;99.90
1686;DHT22;840;47.980;7.830;2023-04-24T02:58:47;12.60;99.90
1686;DHT22;840;47.980;7.830;2023-04-24T03:01:14;12.60;99.90
1686;DHT22;840;47.980;7.830;2023-04-24T03:03:41;12.60;99.90
1686;DHT22;840;47.980;7.830;2023-04-24T03:06:09;12.60;99.90
1686;DHT22;840;47.980;7.830;2023-04-24T03:08:36;12.60;99.90
1686;DHT22;840;47.980;7.830;2023-04-24T03:11:03;12.60;99.90
1686;DHT22;840;47.980;7.830;2023-04-24T03:13:30;12.60;99.90
1686;DHT22;840;47.980;7.830;2023-04-24T03:15:57;12.60;99.90
1686;DHT22;840;47.980;7.830;2023-04-24T03:18:24;12.60;99.90
1686;DHT22;840;47.980;7.830;2023-04-24T03:20:51;12.60;99.90
1686;DHT22;840;47.980;7.830;2023-04-24T03:23:19;12.60;99.90
1686;DHT22;840;47.980;7.830;2023-04-24T03:25:46;12.60;99.90
1686;DHT22;840;47.980;7.830;2023-04-24T03:28:13;12.60;99.90
1686;DHT22;840;47.980;7.830;2023-04-24T03:30:40;12.60;99.90
1686;DHT22;840;47.980;7.830;2023-04-24T03:33:07;12.50;99.90
1686;DHT22;840;47.980;7.830;2023-04-24T03:35:35;12.50;99.90
1686;DHT22;840;47.980;7.830;2023-04-24T03:38:02;12.50;99.90
1686;DHT22;840;47.980;7.830;2023-04-24T03:40:31;12.50;99.90
1686;DHT22;840;47.980;7.830;2023-04-24T03:42:59;12.40;99.90
1686;DHT22;840;47.980;7.830;2023-04-24T03:45:26;12.50;99.90
1686;DHT22;840;47.980;7.830;2023-04-24T03:47:53;12.50;99.90
1686;DHT22;840;47.980;7.830;2023-04-24T03:50:20;12.50;99.90
1686;DHT22;840;47.980;7.830;2023-04-24T03:52:46;12.40;99.90
1686;DHT22;840;47.980;7.830;2023-04-24T03:55:13;12.40;99.90
1686;DHT22;840;47.980;7.830;2023-04-24T03:57:41;12.40;99.90
1686;DHT22;840;47.980;7.830;2023-04-24T04:00:09;12.30;99.90
1686;DHT22;840;47.980;7.830;2023-04-24T04:02:36;12.30;99.90
1686;DHT22;840;47.980;7.830;2023-04-24T04:05:03;12.40;99.90
1686;DHT22;840;47.980;7.830;2023-04-24T04:07:30;12.40;99.90
1686;DHT22;840;47.980;7.830;2023-04-24T04:09:57;12.40;99.90
1686;DHT22;840;47.980;7.830;2023-04-24T04:12:24;12.40;99.90
1686;DHT22;840;47.980;7.830;2023-04-24T04:14:53;12.40;99.90
1686;DHT22;840;47.980;7.830;2023-04-24T04:17:20;12.40;99.90
1686;DHT22;840;47.980;7.830;2023-04-24T04:19:46;12.40;99.90
1686;DHT22;840;47.980;7.830;2023-04-24T04:22:13;12.40;99.90
1686;DHT22;840;47.980;7.830;2023-04-24T04:24:40;12.40;99.90
1686;DHT22;840;47.980;7.830;2023-04-24T04:27:07;12.30;99.90
1686;DHT22;840;47.980;7.830;2023-04-24T04:29:34;12.30;99.90
1686;DHT22;840;47.980;7.830;2023-04-24T04:32:03;12.30;99.90
1686;DHT22;840;47.980;7.830;2023-04-24T04:34:30;12.20;99.90
1686;DHT22;840;47.980;7.830;2023-04-24T04:36:58;12.20;99.90
1686;DHT22;840;47.980;7.830;2023-04-24T04:39:27;12.20;99.90
1686;DHT22;840;47.980;7.830;2023-04-24T04:41:55;12.20;99.90
1686;DHT22;840;47.980;7.830;2023-04-24T04:44:23;12.20;99.90
1686;DHT22;840;47.980;7.830;2023-04-24T04:46:52;12.20;99.90
1686;DHT22;840;47.980;7.830;2023-04-24T04:49:23;12.20;99.90
1686;DHT22;840;47.980;7.830;2023-04-24T04:51:50;12.30;99.90
1686;DHT22;840;47.980;7.830;2023-04-24T04:54:17;12.30;99.90
1686;DHT22;840;47.980;7.830;2023-04-24T04:56:44;12.20;99.90
1686;DHT22;840;47.980;7.830;2023-04-24T04:59:11;12.20;99.90
1686;DHT22;840;47.980;7.830;2023-04-24T05:01:38;12.20;99.90
1686;DHT22;840;47.980;7.830;2023-04-24T05:04:06;12.20;99.90
1686;DHT22;840;47.980;7.830;2023-04-24T05:06:34;12.20;99.90
1686;DHT22;840;47.980;7.830;2023-04-24T05:09:01;12.20;99.90
1686;DHT22;840;47.980;7.830;2023-04-24T05:11:28;12.30;99.90
1686;DHT22;840;47.980;7.830;2023-04-24T05:13:55;12.20;99.90
1686;DHT22;840;47.980;7.830;2023-04-24T05:16:22;12.30;99.90
1686;DHT22;840;47.980;7.830;2023-04-24T05:18:49;12.20;99.90
1686;DHT22;840;47.980;7.830;2023-04-24T05:21:16;12.30;99.90
1686;DHT22;840;47.980;7.830;2023-04-24T05:23:44;12.20;99.90
1686;DHT22;840;47.980;7.830;2023-04-24T05:26:11;12.20;99.90
1686;DHT22;840;47.980;7.830;2023-04-24T05:28:37;12.20;99.90
1686;DHT22;840;47.980;7.830;2023-04-24T05:31:04;12.20;99.90
1686;DHT22;840;47.980;7.830;2023-04-24T05:33:31;12.10;99.90
1686;DHT22;840;47.980;7.830;2023-04-24T05:35:58;12.10;99.90
1686;DHT22;840;47.980;7.830;2023-04-24T05:38:25;12.10;99.90
1686;DHT22;840;47.980;7.830;2023-04-24T05:40:54;12.10;99.90
1686;DHT22;840;47.980;7.830;2023-04-24T05:43:20;12.10;99.90
1686;DHT22;840;47.980;7.830;2023-04-24T05:45:47;12.00;99.90
1686;DHT22;840;47.980;7.830;2023-04-24T05:48:14;12.00;99.90
1686;DHT22;840;47.980;7.830;2023-04-24T05:50:42;12.00;99.90
1686;DHT22;840;47.980;7.830;2023-04-24T05:53:09;11.90;99.90
1686;DHT22;840;47.980;7.830;2023-04-24T05:55:37;11.80;99.90
1686;DHT22;840;47.980;7.830;2023-04-24T05:58:05;11.80;99.90
1686;DHT22;840;47.980;7.830;2023-04-24T06:00:32;11.80;99.90
1686;DHT22;840;47.980;7.830;2023-04-24T06:03:00;11.80;99.90
1686;DHT22;840;47.980;7.830;2023-04-24T06:05:28;11.70;99.90
1686;DHT22;840;47.980;7.830;2023-04-24T06:07:55;11.70;99.90
1686;DHT22;840;47.980;7.830;2023-04-24T06:10:23;11.70;99.90
1686;DHT22;840;47.980;7.830;2023-04-24T06:12:50;11.70;99.90
1686;DHT22;840;47.980;7.830;2023-04-24T06:15:18;11.80;99.90
1686;DHT22;840;47.980;7.830;2023-04-24T06:17:46;11.80;99.90
1686;DHT22;840;47.980;7.830;2023-04-24T06:20:12;11.90;99.90
1686;DHT22;840;47.980;7.830;2023-04-24T06:22:39;12.00;99.90
1686;DHT22;840;47.980;7.830;2023-04-24T06:25:07;12.00;99.90
1686;DHT22;840;47.980;7.830;2023-04-24T06:27:34;12.00;99.90
1686;DHT22;840;47.980;7.830;2023-04-24T06:30:01;12.10;99.90
1686;DHT22;840;47.980;7.830;2023-04-24T06:32:30;12.00;99.90
1686;DHT22;840;47.980;7.830;2023-04-24T06:34:57;12.00;99.90
1686;DHT22;840;47.980;7.830;2023-04-24T06:37:24;12.00;99.90
1686;DHT22;840;47.980;7.830;2023-04-24T06:39:51;12.00;99.90
1686;DHT22;840;47.980;7.830;2023-04-24T06:42:24;12.00;99.90
1686;DHT22;840;47.980;7.830;2023-04-24T06:44:51;12.00;99.90
1686;DHT22;840;47.980;7.830;2023-04-24T06:47:18;12.10;99.90
1686;DHT22;840;47.980;7.830;2023-04-24T06:49:46;12.00;99.90
1686;DHT22;840;47.980;7.830;2023-04-24T06:52:13;12.00;99.90
1686;DHT22;840;47.980;7.830;2023-04-24T06:54:41;12.00;99.90
1686;DHT22;840;47.980;7.830;2023-04-24T06:57:08;12.00;99.90
1686;DHT22;840;47.980;7.830;2023-04-24T06:59:36;12.10;99.90
1686;DHT22;840;47.980;7.830;2023-04-24T07:02:03;12.10;99.90
1686;DHT22;840;47.980;7.830;2023-04-24T07:04:30;12.10;99.90
1686;DHT22;840;47.980;7.830;2023-04-24T07:06:58;12.20;99.90
1686;DHT22;840;47.980;7.830;2023-04-24T07:09:26;12.30;99.90
1686;DHT22;840;47.980;7.830;2023-04-24T07:11:53;12.40;99.90
1686;DHT22;840;47.980;7.830;2023-04-24T07:14:23;12.50;99.90
1686;DHT22;840;47.980;7.830;2023-04-24T07:16:50;12.50;99.90
1686;DHT22;840;47.980;7.830;2023-04-24T07:19:17;12.50;99.90
1686;DHT22;840;47.980;7.830;2023-04-24T07:21:44;12.40;99.90
1686;DHT22;840;47.980;7.830;2023-04-24T07:24:12;12.30;99.90
1686;DHT22;840;47.980;7.830;2023-04-24T07:26:39;12.30;99.90
1686;DHT22;840;47.980;7.830;2023-04-24T07:29:06;12.20;99.90
1686;DHT22;840;47.980;7.830;2023-04-24T07:31:33;12.20;99.90
1686;DHT22;840;47.980;7.830;2023-04-24T07:34:00;12.30;99.90
1686;DHT22;840;47.980;7.830;2023-04-24T07:36:27;12.30;99.90
1686;DHT22;840;47.980;7.830;2023-04-24T07:38:55;12.40;99.90
1686;DHT22;840;47.980;7.830;2023-04-24T07:41:24;12.50;99.90
1686;DHT22;840;47.980;7.830;2023-04-24T07:43:53;12.60;99.90
1686;DHT22;840;47.980;7.830;2023-04-24T07:46:20;12.50;99.90
1686;DHT22;840;47.980;7.830;2023-04-24T07:48:48;12.60;99.90
1686;DHT22;840;47.980;7.830;2023-04-24T07:51:15;12.70;99.90
1686;DHT22;840;47.980;7.830;2023-04-24T07:53:43;12.80;99.90
1686;DHT22;840;47.980;7.830;2023-04-24T07:56:10;12.90;99.90
1686;DHT22;840;47.980;7.830;2023-04-24T07:58:38;12.90;99.90
1686;DHT22;840;47.980;7.830;2023-04-24T08:01:06;13.00;99.90
1686;DHT22;840;47.980;7.830;2023-04-24T08:03:33;13.00;99.90
1686;DHT22;840;47.980;7.830;2023-04-24T08:06:01;13.10;99.90
1686;DHT22;840;47.980;7.830;2023-04-24T08:08:28;13.10;99.90
1686;DHT22;840;47.980;7.830;2023-04-24T08:10:55;13.10;99.90
1686;DHT22;840;47.980;7.830;2023-04-24T08:13:22;13.20;99.90
1686;DHT22;840;47.980;7.830;2023-04-24T08:15:50;13.20;99.90
1686;DHT22;840;47.980;7.830;2023-04-24T08:18:17;13.30;99.90
1686;DHT22;840;47.980;7.830;2023-04-24T08:20:44;13.30;99.90
1686;DHT22;840;47.980;7.830;2023-04-24T08:23:24;13.40;99.90
1686;DHT22;840;47.980;7.830;2023-04-24T08:25:51;13.40;99.90
1686;DHT22;840;47.980;7.830;2023-04-24T08:28:18;13.40;99.90
1686;DHT22;840;47.980;7.830;2023-04-24T08:30:45;13.40;99.90
1686;DHT22;840;47.980;7.830;2023-04-24T08:33:14;13.40;99.90
1686;DHT22;840;47.980;7.830;2023-04-24T08:35:41;13.50;99.90
1686;DHT22;840;47.980;7.830;2023-04-24T08:38:07;13.50;99.90
1686;DHT22;840;47.980;7.830;2023-04-24T08:40:34;13.60;99.90
1686;DHT22;840;47.980;7.830;2023-04-24T08:43:01;13.50;99.90
1686;DHT22;840;47.980;7.830;2023-04-24T08:45:28;13.50;99.90
1686;DHT22;840;47.980;7.830;2023-04-24T08:47:57;13.40;99.90
1686;DHT22;840;47.980;7.830;2023-04-24T08:50:27;13.40;99.90
1686;DHT22;840;47.980;7.830;2023-04-24T08:52:54;13.30;99.90
1686;DHT22;840;47.980;7.830;2023-04-24T08:55:24;13.30;99.90
1686;DHT22;840;47.980;7.830;2023-04-24T08:57:52;13.20;99.90
1686;DHT22;840;47.980;7.830;2023-04-24T09:00:23;13.20;99.90
1686;DHT22;840;47.980;7.830;2023-04-24T09:02:50;13.20;99.90
1686;DHT22;840;47.980;7.830;2023-04-24T09:05:18;13.10;99.90
1686;DHT22;840;47.980;7.830;2023-04-24T09:07:50;13.00;99.90
1686;DHT22;840;47.980;7.830;2023-04-24T09:10:20;13.00;99.90
1686;DHT22;840;47.980;7.830;2023-04-24T09:12:47;13.00;99.90
1686;DHT22;840;47.980;7.830;2023-04-24T09:15:15;13.10;99.90
1686;DHT22;840;47.980;7.830;2023-04-24T09:17:42;13.00;99.90
1686;DHT22;840;47.980;7.830;2023-04-24T09:20:10;13.00;99.80
1686;DHT22;840;47.980;7.830;2023-04-24T09:22:37;12.90;99.90
1686;DHT22;840;47.980;7.830;2023-04-24T09:25:06;12.90;99.90
1686;DHT22;840;47.980;7.830;2023-04-24T09:27:34;13.00;99.90
1686;DHT22;840;47.980;7.830;2023-04-24T09:30:03;13.10;99.90
1686;DHT22;840;47.980;7.830;2023-04-24T09:32:31;13.20;99.80
1686;DHT22;840;47.980;7.830;2023-04-24T09:35:09;13.10;99.90
1686;DHT22;840;47.980;7.830;2023-04-24T09:37:37;13.20;99.80
1686;DHT22;840;47.980;7.830;2023-04-24T09:40:15;13.20;99.80
1686;DHT22;840;47.980;7.830;2023-04-24T09:42:50;13.20;99.80
1686;DHT22;840;47.980;7.830;2023-04-24T09:45:18;13.10;99.30
1686;DHT22;840;47.980;7.830;2023-04-24T09:47:45;13.10;99.90
1686;DHT22;840;47.980;7.830;2023-04-24T09:50:16;13.10;99.90
1686;DHT22;840;47.980;7.830;2023-04-24T09:52:44;13.10;99.90
1686;DHT22;840;47.980;7.830;2023-04-24T09:55:29;13.10;99.90
1686;DHT22;840;47.980;7.830;2023-04-24T09:57:58;13.20;99.90
1686;DHT22;840;47.980;7.830;2023-04-24T10:00:28;13.20;99.90
1686;DHT22;840;47.980;7.830;2023-04-24T10:02:57;13.20;99.90
1686;DHT22;840;47.980;7.830;2023-04-24T10:05:26;13.20;99.90
1686;DHT22;840;47.980;7.830;2023-04-24T10:07:57;13.20;99.20
1686;DHT22;840;47.980;7.830;2023-04-24T10:10:25;13.40;98.90
1686;DHT22;840;47.980;7.830;2023-04-24T10:12:53;13.50;97.30
1686;DHT22;840;47.980;7.830;2023-04-24T10:15:21;13.60;97.00
1686;DHT22;840;47.980;7.830;2023-04-24T10:17:49;13.80;97.30
1686;DHT22;840;47.980;7.830;2023-04-24T10:20:21;13.90;96.90
1686;DHT22;840;47.980;7.830;2023-04-24T10:22:50;14.00;95.60
1686;DHT22;840;47.980;7.830;2023-04-24T10:25:18;14.10;97.00
1686;DHT22;840;47.980;7.830;2023-04-24T10:27:48;14.40;96.60
1686;DHT22;840;47.980;7.830;2023-04-24T10:30:15;14.60;96.80
1686;DHT22;840;47.980;7.830;2023-04-24T10:32:43;14.80;95.70
1686;DHT22;840;47.980;7.830;2023-04-24T10:35:11;14.80;94.40
1686;DHT22;840;47.980;7.830;2023-04-24T10:37:41;14.70;94.50
1686;DHT22;840;47.980;7.830;2023-04-24T10:40:10;14.70;94.20
1686;DHT22;840;47.980;7.830;2023-04-24T10:42:40;14.70;94.60
1686;DHT22;840;47.980;7.830;2023-04-24T10:45:18;14.70;94.50
1686;DHT22;840;47.980;7.830;2023-04-24T10:48:08;14.60;95.00
1686;DHT22;840;47.980;7.830;2023-04-24T10:50:43;14.50;95.40
1686;DHT22;840;47.980;7.830;2023-04-24T10:53:13;14.50;95.30
1686;DHT22;840;47.980;7.830;2023-04-24T10:55:45;14.40;95.10
1686;DHT22;840;47.980;7.830;2023-04-24T10:58:13;14.30;95.60
1686;DHT22;840;47.980;7.830;2023-04-24T11:00:48;14.20;95.20
1686;DHT22;840;47.980;7.830;2023-04-24T11:03:26;14.10;95.60
1686;DHT22;840;47.980;7.830;2023-04-24T11:05:59;14.00;95.80
1686;DHT22;840;47.980;7.830;2023-04-24T11:08:42;14.00;96.70
1686;DHT22;840;47.980;7.830;2023-04-24T11:11:11;14.00;96.50
1686;DHT22;840;47.980;7.830;2023-04-24T11:14:00;14.00;96.40
1686;DHT22;840;47.980;7.830;2023-04-24T11:16:32;13.90;96.60
1686;DHT22;840;47.980;7.830;2023-04-24T11:19:04;13.90;97.00
1686;DHT22;840;47.980;7.830;2023-04-24T11:21:31;13.80;96.40
1686;DHT22;840;47.980;7.830;2023-04-24T11:23:59;13.70;96.70
1686;DHT22;840;47.980;7.830;2023-04-24T11:26:50;13.80;97.00
1686;DHT22;840;47.980;7.830;2023-04-24T11:29:19;13.80;96.30
1686;DHT22;840;47.980;7.830;2023-04-24T11:31:49;13.80;96.80
1686;DHT22;840;47.980;7.830;2023-04-24T11:34:18;13.90;97.50
1686;DHT22;840;47.980;7.830;2023-04-24T11:36:46;14.00;97.20
1686;DHT22;840;47.980;7.830;2023-04-24T11:39:13;14.20;97.50
1686;DHT22;840;47.980;7.830;2023-04-24T11:41:40;14.20;97.00
1686;DHT22;840;47.980;7.830;2023-04-24T11:44:09;14.30;96.80
1686;DHT22;840;47.980;7.830;2023-04-24T11:46:36;14.30;96.90
1686;DHT22;840;47.980;7.830;2023-04-24T11:49:06;14.40;97.30
1686;DHT22;840;47.980;7.830;2023-04-24T11:51:34;14.50;98.10
1686;DHT22;840;47.980;7.830;2023-04-24T11:54:01;14.60;97.90
1686;DHT22;840;47.980;7.830;2023-04-24T11:56:30;14.70;97.40
1686;DHT22;840;47.980;7.830;2023-04-24T11:58:57;14.80;97.10
1686;DHT22;840;47.980;7.830;2023-04-24T12:01:24;14.90;96.80
1686;DHT22;840;47.980;7.830;2023-04-24T12:03:59;14.90;96.80
1686;DHT22;840;47.980;7.830;2023-04-24T12:06:31;15.00;97.00
1686;DHT22;840;47.980;7.830;2023-04-24T12:08:57;15.10;97.30
1686;DHT22;840;47.980;7.830;2023-04-24T12:11:25;15.10;97.40
1686;DHT22;840;47.980;7.830;2023-04-24T12:13:51;15.20;96.50
1686;DHT22;840;47.980;7.830;2023-04-24T12:16:19;15.10;96.20
1686;DHT22;840;47.980;7.830;2023-04-24T12:18:45;15.20;98.20
1686;DHT22;840;47.980;7.830;2023-04-24T12:21:16;15.30;97.50
1686;DHT22;840;47.980;7.830;2023-04-24T12:23:45;15.30;96.20
1686;DHT22;840;47.980;7.830;2023-04-24T12:26:12;15.40;98.80
1686;DHT22;840;47.980;7.830;2023-04-24T12:28:39;15.70;97.00
1686;DHT22;840;47.980;7.830;2023-04-24T12:31:07;15.90;98.20
1686;DHT22;840;47.980;7.830;2023-04-24T12:33:35;16.30;96.20
1686;DHT22;840;47.980;7.830;2023-04-24T12:36:02;16.60;97.00
1686;DHT22;840;47.980;7.830;2023-04-24T12:38:32;16.70;96.60
1686;DHT22;840;47.980;7.830;2023-04-24T12:41:08;16.50;94.20
1686;DHT22;840;47.980;7.830;2023-04-24T12:43:35;16.20;94.80
1686;DHT22;840;47.980;7.830;2023-04-24T12:46:02;15.90;94.90
1686;DHT22;840;47.980;7.830;2023-04-24T12:48:29;15.80;95.00
1686;DHT22;840;47.980;7.830;2023-04-24T12:50:57;15.70;94.30
1686;DHT22;840;47.980;7.830;2023-04-24T12:53:27;15.60;95.00
1686;DHT22;840;47.980;7.830;2023-04-24T12:55:55;15.50;95.40
1686;DHT22;840;47.980;7.830;2023-04-24T12:58:24;15.40;95.00
1686;DHT22;840;47.980;7.830;2023-04-24T13:00:51;15.30;95.30
1686;DHT22;840;47.980;7.830;2023-04-24T13:03:18;15.40;96.30
1686;DHT22;840;47.980;7.830;2023-04-24T13:05:45;15.60;96.40
1686;DHT22;840;47.980;7.830;2023-04-24T13:08:12;15.90;97.00
1686;DHT22;840;47.980;7.830;2023-04-24T13:10:39;16.00;94.40
1686;DHT22;840;47.980;7.830;2023-04-24T13:13:06;16.10;93.80
1686;DHT22;840;47.980;7.830;2023-04-24T13:15:35;16.10;94.90
1686;DHT22;840;47.980;7.830;2023-04-24T13:18:01;16.10;94.70
1686;DHT22;840;47.980;7.830;2023-04-24T13:20:29;16.10;95.00
1686;DHT22;840;47.980;7.830;2023-04-24T13:22:56;16.10;95.50
1686;DHT22;840;47.980;7.830;2023-04-24T13:25:23;16.20;95.50
1686;DHT22;840;47.980;7.830;2023-04-24T13:27:50;16.20;94.50
1686;DHT22;840;47.980;7.830;2023-04-24T13:30:17;16.10;93.60
1686;DHT22;840;47.980;7.830;2023-04-24T13:32:46;15.90;94.00
1686;DHT22;840;47.980;7.830;2023-04-24T13:35:14;15.80;93.90
1686;DHT22;840;47.980;7.830;2023-04-24T13:37:41;15.70;94.70
1686;DHT22;840;47.980;7.830;2023-04-24T13:40:09;15.60;95.20
1686;DHT22;840;47.980;7.830;2023-04-24T13:42:36;15.60;94.50
1686;DHT22;840;47.980;7.830;2023-04-24T13:45:03;15.60;95.10
1686;DHT22;840;47.980;7.830;2023-04-24T13:47:31;15.70;94.80
1686;DHT22;840;47.980;7.830;2023-04-24T13:49:59;15.60;95.00
1686;DHT22;840;47.980;7.830;2023-04-24T13:52:26;15.60;94.90
1686;DHT22;840;47.980;7.830;2023-04-24T13:54:53;15.60;95.30
1686;DHT22;840;47.980;7.830;2023-04-24T13:57:20;15.60;96.00
1686;DHT22;840;47.980;7.830;2023-04-24T13:59:47;15.70;96.90
1686;DHT22;840;47.980;7.830;2023-04-24T14:02:14;15.90;97.10
1686;DHT22;840;47.980;7.830;2023-04-24T14:04:41;16.10;98.50
1686;DHT22;840;47.980;7.830;2023-04-24T14:07:09;16.30;97.40
1686;DHT22;840;47.980;7.830;2023-04-24T14:09:36;16.40;97.40
1686;DHT22;840;47.980;7.830;2023-04-24T14:12:02;16.40;94.80
1686;DHT22;840;47.980;7.830;2023-04-24T14:14:30;16.20;94.80
1686;DHT22;840;47.980;7.830;2023-04-24T14:16:57;16.10;96.00
1686;DHT22;840;47.980;7.830;2023-04-24T14:19:23;16.00;96.40
1686;DHT22;840;47.980;7.830;2023-04-24T14:21:50;16.10;98.40
1686;DHT22;840;47.980;7.830;2023-04-24T14:24:18;16.20;97.50
1686;DHT22;840;47.980;7.830;2023-04-24T14:26:45;16.20;97.60
1686;DHT22;840;47.980;7.830;2023-04-24T14:29:14;16.20;97.70
1686;DHT22;840;47.980;7.830;2023-04-24T14:31:42;16.10;97.90
1686;DHT22;840;47.980;7.830;2023-04-24T14:34:09;16.10;97.00
1686;DHT22;840;47.980;7.830;2023-04-24T14:36:35;16.00;97.30
1686;DHT22;840;47.980;7.830;2023-04-24T14:39:03;15.80;97.10
1686;DHT22;840;47.980;7.830;2023-04-24T14:41:33;15.70;98.30
1686;DHT22;840;47.980;7.830;2023-04-24T14:44:01;15.60;98.30
1686;DHT22;840;47.980;7.830;2023-04-24T14:46:28;15.60;98.00
1686;DHT22;840;47.980;7.830;2023-04-24T14:48:55;15.70;97.00
1686;DHT22;840;47.980;7.830;2023-04-24T14:51:22;15.70;97.10
1686;DHT22;840;47.980;7.830;2023-04-24T14:53:49;15.70;96.90
1686;DHT22;840;47.980;7.830;2023-04-24T14:56:16;15.70;96.10
1686;DHT22;840;47.980;7.830;2023-04-24T14:58:44;15.70;95.90
1686;DHT22;840;47.980;7.830;2023-04-24T15:01:11;15.80;95.90
1686;DHT22;840;47.980;7.830;2023-04-24T15:03:38;15.90;96.60
1686;DHT22;840;47.980;7.830;2023-04-24T15:06:05;16.10;96.30
1686;DHT22;840;47.980;7.830;2023-04-24T15:08:32;16.30;96.50
1686;DHT22;840;47.980;7.830;2023-04-24T15:10:59;16.30;96.40
1686;DHT22;840;47.980;7.830;2023-04-24T15:13:26;16.40;96.20
1686;DHT22;840;47.980;7.830;2023-04-24T15:15:54;16.40;96.80
1686;DHT22;840;47.980;7.830;2023-04-24T15:18:21;16.40;97.20
1686;DHT22;840;47.980;7.830;2023-04-24T15:20:48;16.40;96.60
1686;DHT22;840;47.980;7.830;2023-04-24T15:23:15;16.30;96.90
1686;DHT22;840;47.980;7.830;2023-04-24T15:25:41;16.30;97.20
1686;DHT22;840;47.980;7.830;2023-04-24T15:28:09;16.20;96.60
1686;DHT22;840;47.980;7.830;2023-04-24T15:30:36;16.10;96.90
1686;DHT22;840;47.980;7.830;2023-04-24T15:33:04;16.00;96.50
1686;DHT22;840;47.980;7.830;2023-04-24T15:35:31;16.00;96.20
1686;DHT22;840;47.980;7.830;2023-04-24T15:37:58;15.90;95.70
1686;DHT22;840;47.980;7.830;2023-04-24T15:40:25;15.90;95.70
1686;DHT22;840;47.980;7.830;2023-04-24T15:42:53;15.90;96.20
1686;DHT22;840;47.980;7.830;2023-04-24T15:45:19;15.90;96.80
1686;DHT22;840;47.980;7.830;2023-04-24T15:47:46;15.90;96.80
1686;DHT22;840;47.980;7.830;2023-04-24T15:50:14;15.80;97.10
1686;DHT22;840;47.980;7.830;2023-04-24T15:52:42;15.80;97.10
1686;DHT22;840;47.980;7.830;2023-04-24T15:55:09;15.70;96.50
1686;DHT22;840;47.980;7.830;2023-04-24T15:57:36;15.70;97.40
1686;DHT22;840;47.980;7.830;2023-04-24T16:00:04;15.60;97.30
1686;DHT22;840;47.980;7.830;2023-04-24T16:02:32;15.60;97.60
1686;DHT22;840;47.980;7.830;2023-04-24T16:04:59;15.60;98.50
1686;DHT22;840;47.980;7.830;2023-04-24T16:07:27;15.50;97.50
1686;DHT22;840;47.980;7.830;2023-04-24T16:09:54;15.50;97.60
1686;DHT22;840;47.980;7.830;2023-04-24T16:12:21;15.50;97.70
1686;DHT22;840;47.980;7.830;2023-04-24T16:14:52;15.40;97.90
1686;DHT22;840;47.980;7.830;2023-04-24T16:17:19;15.30;97.40
1686;DHT22;840;47.980;7.830;2023-04-24T16:19:46;15.20;98.00
1686;DHT22;840;47.980;7.830;2023-04-24T16:22:13;15.10;98.10